Time;durP1;ratioP1;P1;durP2;ratioP2;P2;SDS_P1;SDS_P2;PMS_P1;PMS_P2;Temp;Humidity;BMP_temperature;BMP_pressure;BME280_temperature;BME280_humidity;BME280_pressure;Samples;Min_cycle;Max_cycle;Signal;HPM_P1;HPM_P2
2021/07/05 00:01:16;;;;;;;;;;;20.20;62.90;;;;;;491763;240;1196;-44
2021/07/05 00:03:17;;;;;;;;;;;20.20;63.00;;;;;;491839;240;1229;-43
2021/07/05 00:05:19;;;;;;;;;;;20.20;63.00;;;;;;492112;240;1061;-43
2021/07/05 00:07:20;;;;;;;;;;;20.20;62.90;;;;;;491644;240;2171;-43
2021/07/05 00:09:21;;;;;;;;;;;20.20;63.00;;;;;;491839;240;1115;-43
2021/07/05 00:11:23;;;;;;;;;;;20.20;63.00;;;;;;491873;240;1365;-44
2021/07/05 00:13:24;;;;;;;;;;;20.20;63.00;;;;;;491685;240;1239;-43
2021/07/05 00:15:25;;;;;;;;;;;20.20;62.90;;;;;;491649;240;1102;-43
2021/07/05 00:17:26;;;;;;;;;;;20.20;62.90;;;;;;491668;240;1520;-44
2021/07/05 00:19:28;;;;;;;;;;;20.20;62.90;;;;;;492059;240;1043;-44
2021/07/05 00:21:29;;;;;;;;;;;20.20;62.90;;;;;;491863;240;1393;-43
2021/07/05 00:23:30;;;;;;;;;;;20.20;63.00;;;;;;491597;240;1266;-43
2021/07/05 00:25:32;;;;;;;;;;;20.20;62.90;;;;;;491887;240;1016;-43
2021/07/05 00:27:33;;;;;;;;;;;20.20;63.00;;;;;;491609;240;2208;-44
2021/07/05 00:29:34;;;;;;;;;;;20.20;63.00;;;;;;491916;240;1036;-43
2021/07/05 00:31:36;;;;;;;;;;;20.20;63.00;;;;;;491567;240;1303;-44
2021/07/05 00:33:37;;;;;;;;;;;20.20;63.00;;;;;;491892;240;1132;-44
2021/07/05 00:35:38;;;;;;;;;;;20.20;63.00;;;;;;492078;240;1026;-44
2021/07/05 00:37:40;;;;;;;;;;;20.20;63.00;;;;;;492073;240;1030;-43
2021/07/05 00:39:41;;;;;;;;;;;20.20;63.00;;;;;;491748;240;1151;-43
2021/07/05 00:41:42;;;;;;;;;;;20.20;62.90;;;;;;491548;240;1178;-44
2021/07/05 00:43:44;;;;;;;;;;;20.20;62.90;;;;;;491880;240;1058;-43
2021/07/05 00:45:45;;;;;;;;;;;20.20;62.90;;;;;;491850;240;1240;-43
2021/07/05 00:47:46;;;;;;;;;;;20.20;62.90;;;;;;491492;240;2371;-44
2021/07/05 00:49:48;;;;;;;;;;;20.20;62.90;;;;;;491737;240;1727;-43
2021/07/05 00:51:49;;;;;;;;;;;20.20;63.00;;;;;;491889;240;1160;-43
2021/07/05 00:53:50;;;;;;;;;;;20.20;63.00;;;;;;491697;240;1057;-44
2021/07/05 00:55:51;;;;;;;;;;;20.20;63.00;;;;;;491633;240;1145;-43
2021/07/05 00:57:53;;;;;;;;;;;20.20;63.00;;;;;;491622;240;1288;-44
2021/07/05 00:59:54;;;;;;;;;;;20.20;63.00;;;;;;491653;240;1074;-43
2021/07/05 01:01:56;;;;;;;;;;;20.20;63.00;;;;;;491586;240;1232;-43
2021/07/05 01:03:57;;;;;;;;;;;20.20;63.00;;;;;;491596;240;1046;-43
2021/07/05 01:05:58;;;;;;;;;;;20.20;62.90;;;;;;491727;240;1398;-44
2021/07/05 01:07:59;;;;;;;;;;;20.20;62.90;;;;;;492107;240;2195;-43
2021/07/05 01:10:01;;;;;;;;;;;20.20;63.00;;;;;;491661;240;1090;-44
2021/07/05 01:12:02;;;;;;;;;;;20.20;62.90;;;;;;491963;240;1705;-43
2021/07/05 01:14:03;;;;;;;;;;;20.20;62.90;;;;;;491661;240;1043;-43
2021/07/05 01:16:05;;;;;;;;;;;20.20;63.00;;;;;;491964;240;1067;-44
2021/07/05 01:18:06;;;;;;;;;;;20.20;63.00;;;;;;491673;240;1151;-43
2021/07/05 01:20:07;;;;;;;;;;;20.20;63.00;;;;;;492083;240;1090;-43
2021/07/05 01:22:09;;;;;;;;;;;20.20;63.00;;;;;;491614;240;1122;-43
2021/07/05 01:24:10;;;;;;;;;;;20.20;62.90;;;;;;491894;240;945;-43
2021/07/05 01:26:11;;;;;;;;;;;20.20;63.00;;;;;;491606;240;1023;-43
2021/07/05 01:28:13;;;;;;;;;;;20.20;62.90;;;;;;492069;240;2137;-44
2021/07/05 01:30:14;;;;;;;;;;;20.20;62.90;;;;;;491816;240;1088;-43
2021/07/05 01:32:15;;;;;;;;;;;20.20;63.00;;;;;;491660;240;1144;-43
2021/07/05 01:34:17;;;;;;;;;;;20.20;63.00;;;;;;491960;240;1017;-44
2021/07/05 01:36:18;;;;;;;;;;;20.20;63.00;;;;;;492075;240;1038;-43
2021/07/05 01:38:19;;;;;;;;;;;20.20;63.00;;;;;;491842;240;1074;-43
2021/07/05 01:40:21;;;;;;;;;;;20.20;63.00;;;;;;491717;240;1077;-43
2021/07/05 01:42:22;;;;;;;;;;;20.20;63.00;;;;;;492040;240;1566;-43
2021/07/05 01:44:23;;;;;;;;;;;20.20;62.90;;;;;;491852;240;1040;-44
2021/07/05 01:46:25;;;;;;;;;;;20.20;63.00;;;;;;492033;240;1121;-43
2021/07/05 01:48:26;;;;;;;;;;;20.20;63.00;;;;;;491761;240;2204;-43
2021/07/05 01:50:27;;;;;;;;;;;20.20;63.00;;;;;;491960;240;1103;-43
2021/07/05 01:52:29;;;;;;;;;;;20.20;63.00;;;;;;491697;240;1432;-43
2021/07/05 01:54:30;;;;;;;;;;;20.20;63.00;;;;;;491631;240;1038;-43
2021/07/05 01:56:31;;;;;;;;;;;20.20;63.00;;;;;;492026;240;1343;-43
2021/07/05 01:58:33;;;;;;;;;;;20.20;63.00;;;;;;492139;240;1062;-43
2021/07/05 02:00:34;;;;;;;;;;;20.20;63.10;;;;;;491745;240;1045;-43
2021/07/05 02:02:35;;;;;;;;;;;20.20;63.10;;;;;;491892;240;1179;-43
2021/07/05 02:04:37;;;;;;;;;;;20.20;63.00;;;;;;491919;240;1022;-43
2021/07/05 02:06:38;;;;;;;;;;;20.20;63.00;;;;;;491533;240;1062;-43
2021/07/05 02:08:39;;;;;;;;;;;20.20;63.10;;;;;;492096;240;2196;-43
2021/07/05 02:10:41;;;;;;;;;;;20.20;63.00;;;;;;491969;240;1252;-43
2021/07/05 02:12:42;;;;;;;;;;;20.20;63.00;;;;;;492079;240;1194;-44
2021/07/05 02:14:43;;;;;;;;;;;20.20;63.00;;;;;;491624;240;1107;-44
2021/07/05 02:16:45;;;;;;;;;;;20.20;63.00;;;;;;491543;240;1231;-43
2021/07/05 02:18:46;;;;;;;;;;;20.20;63.00;;;;;;491784;240;1180;-43
2021/07/05 02:20:47;;;;;;;;;;;20.20;63.00;;;;;;491590;240;1046;-43
2021/07/05 02:22:50;;;;;;;;;;;20.20;63.00;;;;;;491958;240;1285;-43
2021/07/05 02:24:51;;;;;;;;;;;20.20;63.00;;;;;;492076;240;1100;-43
2021/07/05 02:26:52;;;;;;;;;;;20.20;63.10;;;;;;492079;240;1257;-44
2021/07/05 02:28:54;;;;;;;;;;;20.20;63.00;;;;;;491684;240;2195;-43
2021/07/05 02:30:55;;;;;;;;;;;20.20;63.00;;;;;;491786;240;1098;-43
2021/07/05 02:32:56;;;;;;;;;;;20.10;63.00;;;;;;492055;240;1195;-43
2021/07/05 02:34:58;;;;;;;;;;;20.20;63.00;;;;;;492052;240;1060;-43
2021/07/05 02:36:59;;;;;;;;;;;20.20;63.10;;;;;;492014;240;1048;-43
2021/07/05 02:39:00;;;;;;;;;;;20.10;63.00;;;;;;491908;240;1056;-43
2021/07/05 02:41:01;;;;;;;;;;;20.20;63.00;;;;;;491973;240;1075;-43
2021/07/05 02:43:03;;;;;;;;;;;20.20;63.00;;;;;;491966;240;1066;-44
2021/07/05 02:45:04;;;;;;;;;;;20.20;63.00;;;;;;491865;240;1068;-43
2021/07/05 02:47:05;;;;;;;;;;;20.20;63.00;;;;;;491693;240;1076;-43
2021/07/05 02:49:07;;;;;;;;;;;20.20;62.90;;;;;;491578;240;2187;-43
2021/07/05 02:51:08;;;;;;;;;;;20.20;62.90;;;;;;491957;240;1065;-43
2021/07/05 02:53:10;;;;;;;;;;;20.20;63.00;;;;;;492092;240;1201;-43
2021/07/05 02:55:11;;;;;;;;;;;20.20;63.00;;;;;;491771;240;1120;-43
2021/07/05 02:57:29;;;;;;;;;;;20.20;63.00;;;;;;492082;240;1078;-43
2021/07/05 02:59:14;;;;;;;;;;;20.20;63.00;;;;;;491817;240;2176;-43
2021/07/05 03:01:17;;;;;;;;;;;20.20;63.00;;;;;;491586;240;1039;-43
2021/07/05 03:03:17;;;;;;;;;;;20.20;63.00;;;;;;491632;240;2256;-43
2021/07/05 03:05:18;;;;;;;;;;;20.20;62.90;;;;;;492089;240;1081;-44
2021/07/05 03:07:20;;;;;;;;;;;20.20;63.00;;;;;;492069;240;1092;-43
2021/07/05 03:09:21;;;;;;;;;;;20.20;63.00;;;;;;492081;240;2137;-43
2021/07/05 03:11:22;;;;;;;;;;;20.20;62.80;;;;;;491820;240;1089;-43
2021/07/05 03:13:24;;;;;;;;;;;20.20;62.90;;;;;;491665;240;1193;-43
2021/07/05 03:15:25;;;;;;;;;;;20.20;62.90;;;;;;491720;240;1072;-44
2021/07/05 03:17:26;;;;;;;;;;;20.20;63.00;;;;;;491560;240;1217;-44
2021/07/05 03:19:27;;;;;;;;;;;20.20;62.90;;;;;;491627;240;1066;-44
2021/07/05 03:21:29;;;;;;;;;;;20.20;62.90;;;;;;491620;240;1244;-43
2021/07/05 03:23:30;;;;;;;;;;;20.20;62.90;;;;;;492128;240;1071;-43
2021/07/05 03:25:31;;;;;;;;;;;20.20;62.90;;;;;;491629;240;1100;-43
2021/07/05 03:27:33;;;;;;;;;;;20.20;63.00;;;;;;491624;240;1075;-43
2021/07/05 03:29:34;;;;;;;;;;;20.20;62.90;;;;;;492032;240;2137;-43
2021/07/05 03:31:35;;;;;;;;;;;20.20;62.90;;;;;;491547;240;1225;-44
2021/07/05 03:33:37;;;;;;;;;;;20.20;62.90;;;;;;491956;240;1326;-43
2021/07/05 03:35:38;;;;;;;;;;;20.20;63.00;;;;;;492089;240;1115;-43
2021/07/05 03:37:39;;;;;;;;;;;20.20;62.90;;;;;;492079;240;1100;-43
2021/07/05 03:39:41;;;;;;;;;;;20.20;62.90;;;;;;491634;240;1122;-43
2021/07/05 03:41:42;;;;;;;;;;;20.20;63.00;;;;;;491818;240;1262;-43
2021/07/05 03:43:44;;;;;;;;;;;20.20;63.00;;;;;;491657;240;1068;-44
2021/07/05 03:45:45;;;;;;;;;;;20.20;63.00;;;;;;492066;240;1885;-43
2021/07/05 03:47:46;;;;;;;;;;;20.20;62.90;;;;;;491655;240;1168;-44
2021/07/05 03:49:47;;;;;;;;;;;20.20;62.80;;;;;;491808;240;2132;-43
2021/07/05 03:51:49;;;;;;;;;;;20.20;62.90;;;;;;491697;240;1317;-44
2021/07/05 03:53:50;;;;;;;;;;;20.20;63.00;;;;;;492084;240;1000;-43
2021/07/05 03:55:51;;;;;;;;;;;20.20;62.90;;;;;;492048;240;1152;-43
2021/07/05 03:57:53;;;;;;;;;;;20.20;62.90;;;;;;491542;240;1197;-43
2021/07/05 03:59:54;;;;;;;;;;;20.20;62.90;;;;;;491640;240;1018;-43
2021/07/05 04:01:55;;;;;;;;;;;20.20;62.80;;;;;;491674;240;1528;-43
2021/07/05 04:03:57;;;;;;;;;;;20.20;62.90;;;;;;492056;240;1123;-43
2021/07/05 04:05:59;;;;;;;;;;;20.20;62.90;;;;;;491629;240;1202;-44
2021/07/05 04:08:01;;;;;;;;;;;20.20;63.00;;;;;;491512;240;1191;-43
2021/07/05 04:10:02;;;;;;;;;;;20.20;63.00;;;;;;491633;240;2184;-43
2021/07/05 04:12:04;;;;;;;;;;;20.20;63.10;;;;;;491563;240;1128;-43
2021/07/05 04:14:05;;;;;;;;;;;20.20;63.00;;;;;;491930;240;1092;-44
2021/07/05 04:16:07;;;;;;;;;;;20.20;63.00;;;;;;491514;240;1156;-43
2021/07/05 04:18:08;;;;;;;;;;;20.20;63.00;;;;;;491479;240;1618;-44
2021/07/05 04:20:09;;;;;;;;;;;20.20;63.00;;;;;;491598;240;1202;-43
2021/07/05 04:22:11;;;;;;;;;;;20.20;62.90;;;;;;491503;240;1206;-44
2021/07/05 04:24:12;;;;;;;;;;;20.20;63.00;;;;;;491972;240;1030;-43
2021/07/05 04:26:13;;;;;;;;;;;20.20;62.90;;;;;;492002;240;1074;-43
2021/07/05 04:28:16;;;;;;;;;;;20.20;63.00;;;;;;491512;240;1201;-43
2021/07/05 04:30:16;;;;;;;;;;;20.20;62.90;;;;;;491956;240;2224;-43
2021/07/05 04:32:17;;;;;;;;;;;20.20;62.90;;;;;;491558;240;1055;-43
2021/07/05 04:34:19;;;;;;;;;;;20.20;62.90;;;;;;491590;240;1264;-43
2021/07/05 04:36:20;;;;;;;;;;;20.20;63.00;;;;;;491400;240;1119;-43
2021/07/05 04:38:21;;;;;;;;;;;20.20;63.00;;;;;;491472;240;1073;-43
2021/07/05 04:40:23;;;;;;;;;;;20.20;63.00;;;;;;491570;240;1081;-43
2021/07/05 04:42:24;;;;;;;;;;;20.20;63.00;;;;;;491566;240;1065;-43
2021/07/05 04:44:25;;;;;;;;;;;20.20;63.00;;;;;;491478;240;1075;-43
2021/07/05 04:46:27;;;;;;;;;;;20.10;63.00;;;;;;491509;240;1089;-44
2021/07/05 04:48:28;;;;;;;;;;;20.20;63.00;;;;;;491386;240;2148;-43
2021/07/05 04:50:29;;;;;;;;;;;20.20;63.00;;;;;;491555;240;1284;-43
2021/07/05 04:52:31;;;;;;;;;;;20.20;63.00;;;;;;491643;240;1063;-43
2021/07/05 04:54:32;;;;;;;;;;;20.20;63.10;;;;;;491427;240;1083;-43
2021/07/05 04:56:34;;;;;;;;;;;20.10;63.00;;;;;;491912;240;1224;-44
2021/07/05 04:58:35;;;;;;;;;;;20.10;62.90;;;;;;491480;240;1077;-43
2021/07/05 05:00:36;;;;;;;;;;;20.20;63.00;;;;;;491491;240;1305;-43
2021/07/05 05:02:38;;;;;;;;;;;20.20;63.00;;;;;;491642;240;1147;-43
2021/07/05 05:04:39;;;;;;;;;;;20.20;63.00;;;;;;491728;240;1264;-43
2021/07/05 05:06:40;;;;;;;;;;;20.20;63.00;;;;;;491322;240;1135;-43
2021/07/05 05:08:41;;;;;;;;;;;20.20;63.00;;;;;;491441;240;2196;-43
2021/07/05 05:10:43;;;;;;;;;;;20.20;63.00;;;;;;491394;240;1360;-43
2021/07/05 05:12:44;;;;;;;;;;;20.20;63.10;;;;;;491269;240;1446;-43
2021/07/05 05:14:46;;;;;;;;;;;20.20;63.00;;;;;;491524;240;1053;-43
2021/07/05 05:16:47;;;;;;;;;;;20.20;63.00;;;;;;491528;240;1508;-43
2021/07/05 05:18:48;;;;;;;;;;;20.20;63.00;;;;;;491351;240;1104;-43
2021/07/05 05:20:50;;;;;;;;;;;20.20;62.90;;;;;;491457;240;1425;-43
2021/07/05 05:22:51;;;;;;;;;;;20.20;63.00;;;;;;491277;240;1194;-43
2021/07/05 05:24:52;;;;;;;;;;;20.20;63.00;;;;;;491478;240;1113;-44
2021/07/05 05:26:54;;;;;;;;;;;20.20;63.00;;;;;;491338;240;1241;-44
2021/07/05 05:28:55;;;;;;;;;;;20.20;63.00;;;;;;491336;240;2137;-44
2021/07/05 05:30:57;;;;;;;;;;;20.20;63.00;;;;;;491249;240;1057;-44
2021/07/05 05:32:58;;;;;;;;;;;20.20;63.00;;;;;;491353;240;1205;-43
2021/07/05 05:34:59;;;;;;;;;;;20.20;63.10;;;;;;491329;240;1181;-44
2021/07/05 05:37:00;;;;;;;;;;;20.20;63.10;;;;;;491255;240;1107;-43
2021/07/05 05:39:02;;;;;;;;;;;20.20;63.20;;;;;;491254;240;1031;-43
2021/07/05 05:41:03;;;;;;;;;;;20.30;63.20;;;;;;491473;240;1178;-44
2021/07/05 05:43:08;;;;;;;;;;;20.30;63.20;;;;;;491655;240;1124;-43
2021/07/05 05:45:06;;;;;;;;;;;20.20;63.20;;;;;;491222;240;1848;-43
2021/07/05 05:47:08;;;;;;;;;;;20.20;63.20;;;;;;491138;240;1053;-44
2021/07/05 05:49:09;;;;;;;;;;;20.20;63.20;;;;;;491391;240;2179;-43
2021/07/05 05:51:10;;;;;;;;;;;20.20;63.30;;;;;;491280;240;1207;-44
2021/07/05 05:53:12;;;;;;;;;;;20.20;63.30;;;;;;491210;240;1100;-43
2021/07/05 05:55:13;;;;;;;;;;;20.20;63.30;;;;;;491170;240;1120;-46
2021/07/05 05:57:25;;;;;;;;;;;20.20;63.20;;;;;;491174;240;1122;-44
2021/07/05 05:59:26;;;;;;;;;;;20.20;63.30;;;;;;491284;240;1087;-44
2021/07/05 06:01:28;;;;;;;;;;;20.20;63.20;;;;;;491101;240;1157;-44
2021/07/05 06:03:29;;;;;;;;;;;20.20;63.20;;;;;;491329;240;1103;-44
2021/07/05 06:05:31;;;;;;;;;;;20.20;63.20;;;;;;491401;240;1230;-44
2021/07/05 06:07:32;;;;;;;;;;;20.20;63.20;;;;;;491110;240;1326;-44
2021/07/05 06:09:33;;;;;;;;;;;20.20;63.30;;;;;;491100;240;2192;-44
2021/07/05 06:11:36;;;;;;;;;;;20.20;63.20;;;;;;491250;240;1190;-44
2021/07/05 06:13:37;;;;;;;;;;;20.20;63.20;;;;;;491265;240;2232;-44
2021/07/05 06:15:38;;;;;;;;;;;20.20;63.20;;;;;;491164;240;1091;-44
2021/07/05 06:17:40;;;;;;;;;;;20.20;63.20;;;;;;491183;240;1192;-44
2021/07/05 06:19:41;;;;;;;;;;;20.20;63.30;;;;;;491103;240;1114;-43
2021/07/05 06:21:42;;;;;;;;;;;20.20;63.30;;;;;;491135;240;1300;-44
2021/07/05 06:23:44;;;;;;;;;;;20.20;63.40;;;;;;491154;240;1134;-44
2021/07/05 06:25:45;;;;;;;;;;;20.20;63.30;;;;;;491184;240;1124;-44
2021/07/05 06:27:46;;;;;;;;;;;20.20;63.30;;;;;;491104;240;1095;-44
2021/07/05 06:29:47;;;;;;;;;;;20.20;63.30;;;;;;491289;240;2181;-44
2021/07/05 06:31:49;;;;;;;;;;;20.20;63.30;;;;;;491045;240;1207;-44
2021/07/05 06:33:51;;;;;;;;;;;20.20;63.40;;;;;;491198;240;1069;-44
2021/07/05 06:35:52;;;;;;;;;;;20.20;63.30;;;;;;491071;240;1252;-44
2021/07/05 06:37:53;;;;;;;;;;;20.20;63.30;;;;;;490911;240;1170;-44
2021/07/05 06:39:54;;;;;;;;;;;20.20;63.30;;;;;;491039;240;1156;-44
2021/07/05 06:41:56;;;;;;;;;;;20.20;63.20;;;;;;490982;240;1125;-44
2021/07/05 06:43:57;;;;;;;;;;;20.20;63.30;;;;;;491036;240;1101;-44
2021/07/05 06:45:58;;;;;;;;;;;20.10;63.40;;;;;;491051;240;1153;-44
2021/07/05 06:48:00;;;;;;;;;;;20.10;63.70;;;;;;491002;240;1146;-44
2021/07/05 06:50:01;;;;;;;;;;;20.00;63.90;;;;;;490954;240;2183;-44
2021/07/05 06:52:02;;;;;;;;;;;19.90;64.00;;;;;;490900;240;1418;-44
2021/07/05 06:54:04;;;;;;;;;;;19.90;64.30;;;;;;490980;240;1242;-44
2021/07/05 06:56:05;;;;;;;;;;;19.80;64.30;;;;;;490986;240;1457;-44
2021/07/05 06:58:06;;;;;;;;;;;19.80;64.50;;;;;;491432;240;1221;-44
2021/07/05 07:00:08;;;;;;;;;;;19.80;64.70;;;;;;490810;240;1059;-44
2021/07/05 07:02:09;;;;;;;;;;;19.70;64.80;;;;;;490930;240;1145;-44
2021/07/05 07:04:11;;;;;;;;;;;19.70;65.00;;;;;;490550;240;1090;-44
2021/07/05 07:06:12;;;;;;;;;;;19.60;65.10;;;;;;490652;240;1306;-44
2021/07/05 07:08:14;;;;;;;;;;;19.60;65.10;;;;;;490628;240;1212;-44
2021/07/05 07:10:15;;;;;;;;;;;19.60;65.20;;;;;;490703;240;2588;-44
2021/07/05 07:12:16;;;;;;;;;;;19.50;65.30;;;;;;490655;240;1348;-44
2021/07/05 07:14:19;;;;;;;;;;;19.60;65.20;;;;;;490767;240;1119;-44
2021/07/05 07:16:21;;;;;;;;;;;19.50;65.30;;;;;;490907;240;2227;-44
2021/07/05 07:20:39;;;;;;;;;;;19.50;65.40;;;;;;490673;242;1393;-44
2021/07/05 07:22:41;;;;;;;;;;;19.40;65.40;;;;;;490540;240;1217;-44
2021/07/05 07:24:42;;;;;;;;;;;19.50;65.50;;;;;;490593;240;1091;-44
2021/07/05 07:26:43;;;;;;;;;;;19.40;65.50;;;;;;490649;240;1281;-44
2021/07/05 07:28:46;;;;;;;;;;;19.40;65.60;;;;;;490734;240;1089;-43
2021/07/05 07:30:46;;;;;;;;;;;19.40;65.60;;;;;;490668;240;2230;-44
2021/07/05 07:32:47;;;;;;;;;;;19.40;65.60;;;;;;490615;240;1322;-43
2021/07/05 07:34:49;;;;;;;;;;;19.40;65.60;;;;;;490672;240;1178;-44
2021/07/05 07:36:50;;;;;;;;;;;19.40;65.70;;;;;;490556;240;1208;-44
2021/07/05 07:38:53;;;;;;;;;;;19.40;65.60;;;;;;490579;240;1289;-44
2021/07/05 07:40:54;;;;;;;;;;;19.40;65.60;;;;;;490606;240;1348;-44
2021/07/05 07:42:54;;;;;;;;;;;19.40;65.60;;;;;;490516;240;1314;-44
2021/07/05 07:44:55;;;;;;;;;;;19.40;65.50;;;;;;490595;240;1162;-44
2021/07/05 07:46:57;;;;;;;;;;;19.30;65.60;;;;;;490658;240;1233;-44
2021/07/05 07:48:58;;;;;;;;;;;19.30;65.70;;;;;;490704;240;1107;-44
2021/07/05 07:50:59;;;;;;;;;;;19.30;65.60;;;;;;490737;240;2189;-44
2021/07/05 07:53:01;;;;;;;;;;;19.40;65.70;;;;;;490985;240;1065;-44
2021/07/05 07:55:03;;;;;;;;;;;19.30;65.60;;;;;;491430;240;1260;-44
2021/07/05 07:57:03;;;;;;;;;;;19.30;65.60;;;;;;491044;240;2193;-44
2021/07/05 07:59:05;;;;;;;;;;;19.30;65.70;;;;;;490996;240;1075;-44
2021/07/05 08:01:07;;;;;;;;;;;19.30;65.60;;;;;;490900;240;1194;-44
2021/07/05 08:03:09;;;;;;;;;;;19.30;65.60;;;;;;490715;240;1977;-44
2021/07/05 08:05:09;;;;;;;;;;;19.30;65.70;;;;;;491455;240;2051;-44
2021/07/05 08:07:10;;;;;;;;;;;19.30;65.70;;;;;;491054;240;1159;-44
2021/07/05 08:09:12;;;;;;;;;;;19.30;65.60;;;;;;490818;240;886;-44
2021/07/05 08:11:13;;;;;;;;;;;19.40;65.50;;;;;;491234;240;2200;-44
2021/07/05 08:13:14;;;;;;;;;;;19.30;65.50;;;;;;491218;240;937;-44
2021/07/05 08:15:16;;;;;;;;;;;19.30;65.50;;;;;;490852;240;968;-44
2021/07/05 08:17:17;;;;;;;;;;;19.30;65.50;;;;;;491152;240;1138;-44
2021/07/05 08:19:19;;;;;;;;;;;19.30;65.60;;;;;;491194;240;1009;-44
2021/07/05 08:21:20;;;;;;;;;;;19.20;65.60;;;;;;491288;240;1217;-44
2021/07/05 08:23:21;;;;;;;;;;;19.30;65.60;;;;;;490877;240;1128;-44
2021/07/05 08:25:23;;;;;;;;;;;19.20;65.60;;;;;;491280;240;1197;-44
2021/07/05 08:27:24;;;;;;;;;;;19.20;65.70;;;;;;491318;240;1306;-44
2021/07/05 08:29:25;;;;;;;;;;;19.20;65.70;;;;;;491386;240;1030;-44
2021/07/05 08:31:27;;;;;;;;;;;19.20;65.70;;;;;;491350;240;2184;-44
2021/07/05 08:33:28;;;;;;;;;;;19.30;65.70;;;;;;490942;240;859;-44
2021/07/05 08:35:29;;;;;;;;;;;19.30;65.70;;;;;;490974;240;922;-44
2021/07/05 08:37:31;;;;;;;;;;;19.20;65.70;;;;;;491279;240;1070;-44
2021/07/05 08:39:32;;;;;;;;;;;19.20;65.60;;;;;;490968;240;891;-44
2021/07/05 08:41:33;;;;;;;;;;;19.20;65.60;;;;;;491160;240;1087;-44
2021/07/05 08:43:34;;;;;;;;;;;19.20;65.70;;;;;;491415;240;880;-44
2021/07/05 08:45:36;;;;;;;;;;;19.20;65.70;;;;;;490853;240;1170;-44
2021/07/05 08:47:37;;;;;;;;;;;19.20;65.70;;;;;;491233;240;1067;-44
2021/07/05 08:49:38;;;;;;;;;;;19.20;65.60;;;;;;490995;240;968;-44
2021/07/05 08:51:40;;;;;;;;;;;19.20;65.60;;;;;;490934;240;2184;-44
2021/07/05 08:53:41;;;;;;;;;;;19.20;65.60;;;;;;491058;240;1162;-44
2021/07/05 08:55:43;;;;;;;;;;;19.20;65.60;;;;;;491286;240;1147;-44
2021/07/05 08:57:44;;;;;;;;;;;19.20;65.60;;;;;;490820;240;1288;-44
2021/07/05 08:59:45;;;;;;;;;;;19.20;65.60;;;;;;491077;240;1230;-44
2021/07/05 09:01:46;;;;;;;;;;;19.20;65.60;;;;;;490572;240;1231;-44
2021/07/05 09:03:50;;;;;;;;;;;19.20;65.60;;;;;;490714;240;1193;-43
2021/07/05 09:05:49;;;;;;;;;;;19.20;65.60;;;;;;490774;240;2283;-44
2021/07/05 09:07:51;;;;;;;;;;;19.20;65.60;;;;;;490734;240;1149;-44
2021/07/05 09:09:52;;;;;;;;;;;19.20;65.50;;;;;;490759;240;1104;-44
2021/07/05 09:11:53;;;;;;;;;;;19.20;65.70;;;;;;490702;240;2200;-44
2021/07/05 09:13:55;;;;;;;;;;;19.10;65.70;;;;;;490625;240;1090;-44
2021/07/05 09:15:56;;;;;;;;;;;19.20;65.60;;;;;;490501;240;1177;-44
2021/07/05 09:17:57;;;;;;;;;;;19.20;65.60;;;;;;490437;240;1147;-44
2021/07/05 09:19:59;;;;;;;;;;;19.20;65.70;;;;;;490623;240;1365;-43
2021/07/05 09:22:00;;;;;;;;;;;19.20;65.60;;;;;;490608;240;1365;-43
2021/07/05 09:24:02;;;;;;;;;;;19.20;65.60;;;;;;490805;240;1171;-44
2021/07/05 09:26:03;;;;;;;;;;;19.10;65.70;;;;;;490436;240;1200;-44
2021/07/05 09:28:04;;;;;;;;;;;19.20;65.60;;;;;;490612;240;1259;-44
2021/07/05 09:30:06;;;;;;;;;;;19.20;65.60;;;;;;490498;240;2180;-44
2021/07/05 09:32:07;;;;;;;;;;;19.20;65.60;;;;;;490376;240;1244;-44
2021/07/05 09:34:09;;;;;;;;;;;19.20;65.60;;;;;;490553;240;1056;-44
2021/07/05 09:36:10;;;;;;;;;;;19.10;65.60;;;;;;490704;240;1206;-44
2021/07/05 09:38:11;;;;;;;;;;;19.10;65.60;;;;;;490551;240;1234;-44
2021/07/05 09:40:13;;;;;;;;;;;19.20;65.60;;;;;;490572;240;1229;-44
2021/07/05 09:42:14;;;;;;;;;;;19.10;65.60;;;;;;490476;240;1065;-44
2021/07/05 09:44:15;;;;;;;;;;;19.20;65.70;;;;;;490478;240;1076;-44
2021/07/05 09:46:16;;;;;;;;;;;19.20;65.70;;;;;;490471;240;1092;-44
2021/07/05 09:48:18;;;;;;;;;;;19.10;65.50;;;;;;490549;240;1120;-44
2021/07/05 09:50:21;;;;;;;;;;;19.10;65.60;;;;;;490299;240;2132;-44
2021/07/05 09:52:24;;;;;;;;;;;19.10;65.60;;;;;;490361;240;2055;-44
2021/07/05 09:54:22;;;;;;;;;;;19.10;65.60;;;;;;490459;240;2096;-44
2021/07/05 09:56:23;;;;;;;;;;;19.10;65.70;;;;;;490143;240;1408;-44
2021/07/05 09:58:25;;;;;;;;;;;19.10;65.70;;;;;;490467;240;1075;-44
2021/07/05 10:00:26;;;;;;;;;;;19.10;65.70;;;;;;490570;240;1106;-44
2021/07/05 10:02:27;;;;;;;;;;;19.10;65.70;;;;;;490563;240;1202;-44
2021/07/05 10:04:31;;;;;;;;;;;19.10;65.60;;;;;;490538;240;1076;-44
2021/07/05 10:06:30;;;;;;;;;;;19.10;65.60;;;;;;490274;240;2014;-44
2021/07/05 10:08:31;;;;;;;;;;;19.10;65.60;;;;;;490261;240;1168;-44
2021/07/05 10:10:32;;;;;;;;;;;19.10;65.70;;;;;;490603;240;2196;-44
2021/07/05 10:12:34;;;;;;;;;;;19.10;65.70;;;;;;490645;240;1061;-44
2021/07/05 10:14:35;;;;;;;;;;;19.10;65.60;;;;;;490655;240;1090;-44
2021/07/05 10:16:36;;;;;;;;;;;19.10;65.60;;;;;;490488;240;1417;-44
2021/07/05 10:18:38;;;;;;;;;;;19.10;65.70;;;;;;490546;240;1122;-44
2021/07/05 10:20:39;;;;;;;;;;;19.10;65.60;;;;;;490603;240;1085;-44
2021/07/05 10:22:40;;;;;;;;;;;19.10;65.60;;;;;;490488;240;1193;-44
2021/07/05 10:24:42;;;;;;;;;;;19.10;65.60;;;;;;490482;240;1233;-44
2021/07/05 10:26:45;;;;;;;;;;;19.10;65.60;;;;;;490252;240;1175;-44
2021/07/05 10:28:45;;;;;;;;;;;19.10;65.60;;;;;;490762;240;2201;-44
2021/07/05 10:30:47;;;;;;;;;;;19.10;65.60;;;;;;490636;240;2200;-44
2021/07/05 10:32:48;;;;;;;;;;;19.10;65.60;;;;;;491239;240;2092;-44
2021/07/05 10:34:50;;;;;;;;;;;19.10;65.50;;;;;;491364;240;957;-44
2021/07/05 10:36:51;;;;;;;;;;;19.10;65.60;;;;;;491364;240;2244;-44
2021/07/05 10:38:52;;;;;;;;;;;19.10;65.70;;;;;;491332;240;1218;-44
2021/07/05 10:40:53;;;;;;;;;;;19.10;65.70;;;;;;491362;240;1067;-44
2021/07/05 10:42:55;;;;;;;;;;;19.10;65.70;;;;;;490839;240;1199;-44
2021/07/05 10:44:56;;;;;;;;;;;19.00;65.70;;;;;;491274;240;898;-44
2021/07/05 10:47:00;;;;;;;;;;;19.10;65.70;;;;;;490748;240;1156;-44
2021/07/05 10:48:59;;;;;;;;;;;19.10;65.70;;;;;;491318;240;1332;-44
2021/07/05 10:51:00;;;;;;;;;;;19.10;65.70;;;;;;491217;240;2203;-44
2021/07/05 10:53:01;;;;;;;;;;;19.10;65.60;;;;;;490778;240;1056;-44
2021/07/05 10:55:02;;;;;;;;;;;19.10;65.70;;;;;;490976;241;1150;-44
2021/07/05 10:57:04;;;;;;;;;;;19.00;65.70;;;;;;491342;240;1252;-44
2021/07/05 10:59:05;;;;;;;;;;;19.00;65.70;;;;;;491011;240;906;-44
2021/07/05 11:01:06;;;;;;;;;;;19.00;65.70;;;;;;490815;240;1214;-44
2021/07/05 11:03:08;;;;;;;;;;;19.10;65.70;;;;;;490379;240;1097;-43
2021/07/05 11:05:09;;;;;;;;;;;19.00;65.60;;;;;;490790;240;1059;-44
2021/07/05 11:07:10;;;;;;;;;;;19.00;65.70;;;;;;490172;240;1065;-44
2021/07/05 11:09:12;;;;;;;;;;;19.10;65.60;;;;;;490383;240;1464;-44
2021/07/05 11:11:13;;;;;;;;;;;19.10;65.70;;;;;;490522;240;2199;-44
2021/07/05 11:13:14;;;;;;;;;;;19.00;65.60;;;;;;490530;240;1234;-44
2021/07/05 11:15:16;;;;;;;;;;;19.10;65.60;;;;;;490690;240;1111;-44
2021/07/05 11:17:18;;;;;;;;;;;19.10;65.60;;;;;;490613;240;1107;-44
2021/07/05 11:19:18;;;;;;;;;;;19.00;65.60;;;;;;490588;240;2357;-44
2021/07/05 11:21:20;;;;;;;;;;;19.00;65.60;;;;;;490487;240;1222;-44
2021/07/05 11:23:21;;;;;;;;;;;19.00;65.70;;;;;;490524;240;1101;-44
2021/07/05 11:25:22;;;;;;;;;;;19.10;65.60;;;;;;490642;240;1261;-43
2021/07/05 11:27:24;;;;;;;;;;;19.10;65.60;;;;;;490350;240;1110;-44
2021/07/05 11:29:25;;;;;;;;;;;19.00;65.60;;;;;;490347;240;1217;-44
2021/07/05 11:31:27;;;;;;;;;;;19.00;65.70;;;;;;490082;240;2208;-44
2021/07/05 11:33:29;;;;;;;;;;;19.00;65.80;;;;;;490499;240;1211;-44
2021/07/05 11:35:29;;;;;;;;;;;19.00;65.70;;;;;;490647;240;1372;-44
2021/07/05 11:37:31;;;;;;;;;;;19.00;65.70;;;;;;490510;240;1155;-43
2021/07/05 11:39:32;;;;;;;;;;;19.00;65.70;;;;;;490511;240;1175;-44
2021/07/05 11:41:33;;;;;;;;;;;19.00;65.70;;;;;;490285;240;1345;-44
2021/07/05 11:43:35;;;;;;;;;;;19.00;65.70;;;;;;490415;240;1399;-44
2021/07/05 11:45:36;;;;;;;;;;;19.00;65.80;;;;;;491225;240;1170;-44
2021/07/05 11:47:37;;;;;;;;;;;19.00;65.90;;;;;;491322;240;1179;-43
2021/07/05 11:49:39;;;;;;;;;;;19.00;65.90;;;;;;491392;240;1210;-44
2021/07/05 11:51:43;;;;;;;;;;;19.00;65.90;;;;;;491307;240;2209;-44
2021/07/05 11:53:41;;;;;;;;;;;19.00;65.80;;;;;;490924;240;1981;-44
2021/07/05 11:55:42;;;;;;;;;;;18.90;65.80;;;;;;490917;240;1193;-44
2021/07/05 11:57:44;;;;;;;;;;;19.00;65.80;;;;;;491074;240;949;-44
2021/07/05 11:59:48;;;;;;;;;;;19.00;65.80;;;;;;491511;240;857;-44